Time;durP1;ratioP1;P1;durP2;ratioP2;P2;SDS_P1;SDS_P2;PMS_P1;PMS_P2;Temp;Humidity;BMP_temperature;BMP_pressure;BME280_temperature;BME280_humidity;BME280_pressure;Samples;Min_cycle;Max_cycle;Signal;HPM_P1;HPM_P2
2022/07/06 00:00:32;;;;;;;1.90;1.70;;;17.50;99.90;;;;;;5071878;28;20025;-51
2022/07/06 00:02:58;;;;;;;2.63;1.50;;;17.50;99.90;;;;;;5073095;28;20028;-55
2022/07/06 00:05:24;;;;;;;5.32;1.70;;;17.50;99.90;;;;;;5073114;28;20023;-53
2022/07/06 00:07:50;;;;;;;1.60;1.50;;;17.60;99.90;;;;;;5073202;28;20029;-56
2022/07/06 00:10:15;;;;;;;3.97;1.90;;;17.50;99.90;;;;;;5071883;28;20025;-56
2022/07/06 00:12:41;;;;;;;2.78;1.60;;;17.50;99.90;;;;;;5072034;28;20027;-55
2022/07/06 00:15:07;;;;;;;2.92;1.35;;;17.50;99.90;;;;;;5072087;28;20021;-50
2022/07/06 00:17:32;;;;;;;2.08;1.55;;;17.40;99.90;;;;;;5072906;28;20504;-51
2022/07/06 00:19:58;;;;;;;1.70;1.50;;;17.40;99.90;;;;;;5073040;28;20479;-52
2022/07/06 00:22:24;;;;;;;2.88;1.88;;;17.30;99.90;;;;;;5071598;28;20021;-52
2022/07/06 00:24:49;;;;;;;3.17;1.60;;;17.20;99.90;;;;;;5072998;28;20067;-51
2022/07/06 00:27:15;;;;;;;1.88;1.60;;;17.20;99.90;;;;;;5072358;28;20107;-58
2022/07/06 00:29:43;;;;;;;1.85;1.63;;;17.10;99.90;;;;;;5073082;28;20033;-57
2022/07/06 00:32:10;;;;;;;2.65;1.80;;;17.10;99.90;;;;;;5071881;28;20031;-55
2022/07/06 00:34:35;;;;;;;1.55;1.40;;;17.10;99.90;;;;;;5071671;28;20398;-54
2022/07/06 00:37:01;;;;;;;3.75;1.50;;;17.10;99.90;;;;;;5071797;28;20021;-57
2022/07/06 00:39:29;;;;;;;2.08;1.52;;;17.10;99.90;;;;;;5071620;28;20036;-53
2022/07/06 00:41:56;;;;;;;2.42;1.67;;;17.10;99.90;;;;;;5072132;28;20039;-54
2022/07/06 00:44:21;;;;;;;3.33;1.60;;;17.00;99.90;;;;;;5072748;28;20028;-54
2022/07/06 00:46:47;;;;;;;5.63;1.98;;;16.90;99.90;;;;;;5072704;28;20012;-54
2022/07/06 00:50:13;;;;;;;3.80;1.60;;;16.90;99.90;;;;;;5071575;28;20056;-52
2022/07/06 00:51:59;;;;;;;1.80;1.52;;;16.90;99.90;;;;;;5076053;28;20028;-50
2022/07/06 00:54:26;;;;;;;1.65;1.50;;;16.90;99.90;;;;;;5076545;28;20038;-52
2022/07/06 00:56:52;;;;;;;2.22;1.90;;;16.80;99.90;;;;;;5076216;28;20563;-50
2022/07/06 00:59:18;;;;;;;1.85;1.50;;;16.60;99.90;;;;;;5075213;28;20115;-51
2022/07/06 01:01:44;;;;;;;4.40;1.50;;;16.60;99.90;;;;;;5076144;28;20024;-51
2022/07/06 01:04:09;;;;;;;2.33;1.50;;;16.50;99.90;;;;;;5074917;28;20032;-54
2022/07/06 01:06:35;;;;;;;1.75;1.55;;;16.50;99.90;;;;;;5076067;28;20020;-50
2022/07/06 01:09:01;;;;;;;2.15;1.80;;;16.50;99.90;;;;;;5076028;28;20056;-51
2022/07/06 01:11:27;;;;;;;3.28;1.77;;;16.50;99.90;;;;;;5075167;28;20040;-54
2022/07/06 01:13:55;;;;;;;2.72;1.98;;;16.30;99.90;;;;;;5076103;28;20036;-53
2022/07/06 01:16:21;;;;;;;4.38;1.77;;;16.20;99.90;;;;;;5075981;28;20028;-52
2022/07/06 01:18:47;;;;;;;8.55;2.28;;;16.00;99.90;;;;;;5076210;28;20387;-58
2022/07/06 01:21:14;;;;;;;2.13;1.60;;;16.00;99.90;;;;;;5076027;28;20411;-52
2022/07/06 01:23:46;;;;;;;3.90;1.77;;;16.00;99.90;;;;;;5074598;28;20032;-55
2022/07/06 01:26:14;;;;;;;3.22;1.45;;;16.20;99.90;;;;;;5074908;28;20024;-55
2022/07/06 01:28:40;;;;;;;3.65;1.45;;;16.30;99.90;;;;;;5074965;28;20029;-56
2022/07/06 01:31:23;;;;;;;3.38;2.17;;;16.40;99.90;;;;;;5074492;28;20039;-57
2022/07/06 01:33:50;;;;;;;10.30;1.98;;;16.30;99.90;;;;;;5074370;28;20103;-54
2022/07/06 01:36:16;;;;;;;3.33;1.40;;;16.20;99.90;;;;;;5074580;28;20039;-54
2022/07/06 01:38:52;;;;;;;2.55;2.03;;;16.10;99.90;;;;;;5075510;28;20108;-58
2022/07/06 01:41:19;;;;;;;1.77;1.45;;;16.10;99.90;;;;;;5074694;28;20024;-53
2022/07/06 01:43:45;;;;;;;3.75;1.58;;;15.90;99.90;;;;;;5075115;28;20024;-51
2022/07/06 01:46:11;;;;;;;3.15;1.63;;;15.90;99.90;;;;;;5074617;28;20059;-55
2022/07/06 01:48:38;;;;;;;2.60;1.85;;;16.00;99.90;;;;;;5075593;28;20052;-53
2022/07/06 01:51:04;;;;;;;1.70;1.60;;;15.90;99.90;;;;;;5075385;28;20021;-55
2022/07/06 01:53:30;;;;;;;3.75;1.88;;;16.00;99.90;;;;;;5074005;28;20067;-51
2022/07/06 01:55:56;;;;;;;3.47;1.90;;;15.90;99.90;;;;;;5075242;28;20052;-51
2022/07/06 01:58:22;;;;;;;4.93;1.88;;;15.90;99.90;;;;;;5074242;28;20020;-57
2022/07/06 02:00:48;;;;;;;4.15;1.73;;;15.80;99.90;;;;;;5075255;28;20013;-56
2022/07/06 02:03:13;;;;;;;2.28;1.80;;;15.70;99.90;;;;;;5073094;28;20021;-54
2022/07/06 02:05:39;;;;;;;3.22;1.70;;;15.70;99.90;;;;;;5073779;28;20070;-55
2022/07/06 02:08:05;;;;;;;3.28;2.08;;;15.80;99.90;;;;;;5074974;28;20024;-51
2022/07/06 02:10:30;;;;;;;4.32;1.90;;;15.70;99.90;;;;;;5075050;28;20071;-54
2022/07/06 02:12:56;;;;;;;3.80;2.13;;;15.70;99.90;;;;;;5074868;28;20024;-55
2022/07/06 02:15:22;;;;;;;2.80;2.13;;;15.70;99.90;;;;;;5073451;28;20028;-53
2022/07/06 02:17:47;;;;;;;8.05;2.55;;;15.70;99.90;;;;;;5075073;28;20165;-51
2022/07/06 02:20:13;;;;;;;2.00;1.80;;;15.70;99.90;;;;;;5074678;28;20020;-54
2022/07/06 02:22:39;;;;;;;2.25;1.83;;;15.60;99.90;;;;;;5074616;28;20025;-53
2022/07/06 02:25:05;;;;;;;5.22;1.92;;;15.60;99.90;;;;;;5074672;28;20024;-54
2022/07/06 02:27:31;;;;;;;3.53;2.08;;;15.50;99.90;;;;;;5073247;28;20112;-53
2022/07/06 02:29:56;;;;;;;3.63;1.88;;;15.30;99.90;;;;;;5073609;28;20166;-53
2022/07/06 02:32:22;;;;;;;3.15;1.85;;;15.30;99.90;;;;;;5074353;28;20029;-53
2022/07/06 02:34:47;;;;;;;2.92;1.80;;;15.20;99.90;;;;;;5074634;28;20099;-52
2022/07/06 02:37:13;;;;;;;2.78;1.95;;;15.20;99.90;;;;;;5074333;28;20031;-56
2022/07/06 02:39:38;;;;;;;2.97;1.70;;;15.20;99.90;;;;;;5074775;28;20116;-52
2022/07/06 02:42:04;;;;;;;5.43;2.03;;;15.10;99.90;;;;;;5074506;28;20056;-52
2022/07/06 02:44:30;;;;;;;2.92;1.92;;;15.10;99.90;;;;;;5074134;28;20044;-54
2022/07/06 02:46:55;;;;;;;5.78;2.10;;;15.00;99.90;;;;;;5073357;28;20024;-51
2022/07/06 02:49:21;;;;;;;2.63;1.90;;;15.00;99.90;;;;;;5073324;28;20027;-58
2022/07/06 02:51:47;;;;;;;3.22;1.92;;;15.00;99.90;;;;;;5074027;28;20020;-57
2022/07/06 02:54:12;;;;;;;2.67;2.13;;;14.90;99.90;;;;;;5072799;28;20024;-57
2022/07/06 02:56:38;;;;;;;2.75;2.03;;;14.90;99.90;;;;;;5073576;28;20028;-55
2022/07/06 02:59:03;;;;;;;3.05;2.10;;;14.80;99.90;;;;;;5073002;28;20024;-55
2022/07/06 03:01:29;;;;;;;5.70;2.63;;;14.80;99.90;;;;;;5073531;28;20069;-57
2022/07/06 03:03:55;;;;;;;4.28;2.28;;;14.70;99.90;;;;;;5072638;28;20163;-57
2022/07/06 03:06:20;;;;;;;3.30;2.00;;;14.60;99.90;;;;;;5072876;28;20060;-51
2022/07/06 03:08:46;;;;;;;6.57;3.10;;;14.60;99.90;;;;;;5074188;28;20024;-54
2022/07/06 03:11:11;;;;;;;2.70;2.08;;;14.70;99.90;;;;;;5073712;28;20036;-55
2022/07/06 03:13:37;;;;;;;4.18;2.60;;;14.70;99.90;;;;;;5072731;28;20086;-54
2022/07/06 03:16:03;;;;;;;5.70;2.38;;;14.80;99.90;;;;;;5073651;28;20025;-52
2022/07/06 03:18:28;;;;;;;3.42;2.45;;;14.70;99.90;;;;;;5072992;28;20035;-57
2022/07/06 03:20:54;;;;;;;8.20;2.10;;;14.60;99.90;;;;;;5072575;28;20016;-53
2022/07/06 03:23:20;;;;;;;2.95;2.15;;;14.60;99.90;;;;;;5073281;28;20044;-54
2022/07/06 03:25:46;;;;;;;2.72;2.20;;;14.60;99.90;;;;;;5073502;28;20367;-52
2022/07/06 03:28:11;;;;;;;2.55;1.80;;;14.60;99.90;;;;;;5072651;28;20024;-54
2022/07/06 03:30:37;;;;;;;6.05;1.95;;;14.60;99.90;;;;;;5073421;28;20025;-57
2022/07/06 03:33:03;;;;;;;3.83;2.08;;;14.60;99.90;;;;;;5073522;28;20098;-54
2022/07/06 03:35:29;;;;;;;3.22;2.33;;;14.60;99.90;;;;;;5073402;28;20033;-53
2022/07/06 03:37:54;;;;;;;5.57;2.50;;;14.50;99.90;;;;;;5073422;28;20099;-51
2022/07/06 03:40:20;;;;;;;5.63;2.28;;;14.40;99.90;;;;;;5072584;28;20024;-52
2022/07/06 03:42:45;;;;;;;7.05;2.33;;;14.40;99.90;;;;;;5072086;28;20023;-55
2022/07/06 03:45:11;;;;;;;7.40;2.70;;;14.60;99.90;;;;;;5073403;28;20021;-53
2022/07/06 03:47:37;;;;;;;3.20;2.30;;;14.60;99.90;;;;;;5073310;28;20055;-51
2022/07/06 03:50:03;;;;;;;7.57;2.33;;;14.50;99.90;;;;;;5072331;28;20020;-55
2022/07/06 03:52:28;;;;;;;4.35;2.55;;;14.50;99.90;;;;;;5073177;28;20029;-53
2022/07/06 03:54:56;;;;;;;5.53;2.35;;;14.40;99.90;;;;;;5072091;28;20046;-55
2022/07/06 03:57:22;;;;;;;4.40;2.30;;;14.50;99.90;;;;;;5073312;28;20487;-55
2022/07/06 03:59:47;;;;;;;4.25;2.20;;;14.60;99.90;;;;;;5072267;28;20024;-57
2022/07/06 04:02:13;;;;;;;5.72;2.50;;;14.70;99.90;;;;;;5072756;28;20025;-55
2022/07/06 04:04:39;;;;;;;2.50;2.22;;;14.80;99.90;;;;;;5072129;28;20020;-57
2022/07/06 04:07:04;;;;;;;4.43;2.47;;;14.90;99.90;;;;;;5072216;28;20093;-56
2022/07/06 04:09:30;;;;;;;2.58;2.28;;;14.90;99.90;;;;;;5072327;28;20051;-55
2022/07/06 04:11:56;;;;;;;5.57;2.03;;;15.00;99.90;;;;;;5071858;28;20040;-51
2022/07/06 04:14:21;;;;;;;7.68;2.47;;;15.10;99.90;;;;;;5072182;28;20028;-55
2022/07/06 04:16:47;;;;;;;8.10;2.53;;;15.30;99.90;;;;;;5073065;28;20025;-53
2022/07/06 04:19:13;;;;;;;7.90;2.88;;;15.50;99.90;;;;;;5073386;28;20063;-58
2022/07/06 04:21:38;;;;;;;7.30;2.70;;;15.70;99.90;;;;;;5072666;28;20020;-57
2022/07/06 04:24:04;;;;;;;4.35;2.38;;;15.80;99.90;;;;;;5073264;28;20024;-55
2022/07/06 04:26:30;;;;;;;7.03;2.10;;;16.00;99.90;;;;;;5075147;28;20037;-57
2022/07/06 04:28:56;;;;;;;6.00;2.05;;;16.10;99.90;;;;;;5077454;28;20119;-53
2022/07/06 04:31:21;;;;;;;2.92;2.13;;;16.30;99.90;;;;;;5077841;28;20394;-57
2022/07/06 04:33:47;;;;;;;2.85;2.00;;;16.40;99.90;;;;;;5076136;28;20077;-55
2022/07/06 04:36:13;;;;;;;6.90;2.30;;;16.50;99.90;;;;;;5076066;28;20020;-54
2022/07/06 04:38:39;;;;;;;4.07;1.73;;;16.70;99.90;;;;;;5076852;28;20090;-53
2022/07/06 04:41:05;;;;;;;6.68;2.08;;;16.70;99.90;;;;;;5076741;28;20024;-56
2022/07/06 04:43:30;;;;;;;3.75;1.70;;;16.80;99.90;;;;;;5076898;28;20031;-57
2022/07/06 04:45:56;;;;;;;2.08;1.60;;;16.90;99.90;;;;;;5075404;28;20039;-56
2022/07/06 04:48:22;;;;;;;2.17;1.92;;;17.00;99.90;;;;;;5075274;28;20115;-57
2022/07/06 04:50:47;;;;;;;5.22;1.95;;;17.00;99.90;;;;;;5075184;28;20047;-55
2022/07/06 04:53:13;;;;;;;1.75;1.65;;;17.10;99.90;;;;;;5075340;28;20035;-57
2022/07/06 04:55:39;;;;;;;2.97;2.03;;;17.10;99.90;;;;;;5075216;28;20111;-57
2022/07/06 04:58:04;;;;;;;5.65;2.42;;;17.20;99.90;;;;;;5075406;28;20029;-57
2022/07/06 05:00:31;;;;;;;4.90;2.47;;;17.20;99.90;;;;;;5096597;22;20039;-49
2022/07/06 05:02:56;;;;;;;3.88;2.30;;;17.20;99.90;;;;;;4995651;28;20038;-50
2022/07/06 05:05:22;;;;;;;2.80;1.65;;;17.20;99.90;;;;;;4995876;28;20026;-53
2022/07/06 05:07:48;;;;;;;7.78;2.15;;;17.10;99.90;;;;;;4995636;28;20026;-53
2022/07/06 05:10:13;;;;;;;2.75;1.92;;;17.10;99.90;;;;;;4995565;28;20117;-54
2022/07/06 05:12:39;;;;;;;4.13;2.40;;;17.20;99.90;;;;;;4995769;28;20018;-54
2022/07/06 05:15:05;;;;;;;2.65;1.67;;;17.30;99.90;;;;;;4995368;28;20026;-56
2022/07/06 05:17:31;;;;;;;3.67;1.90;;;17.80;99.90;;;;;;4996562;28;20026;-52
2022/07/06 05:19:56;;;;;;;3.53;1.67;;;18.20;99.90;;;;;;4995191;28;20038;-49
2022/07/06 05:22:22;;;;;;;3.78;2.00;;;18.70;99.90;;;;;;4996451;28;20030;-55
2022/07/06 05:24:48;;;;;;;9.85;2.05;;;19.10;99.90;;;;;;4995486;28;20029;-56
2022/07/06 05:27:13;;;;;;;2.70;1.48;;;19.50;99.90;;;;;;4995190;28;20069;-54
2022/07/06 05:29:39;;;;;;;10.30;1.70;;;19.90;99.90;;;;;;4995125;28;20036;-54
2022/07/06 05:32:05;;;;;;;4.45;1.60;;;20.40;99.90;;;;;;4996196;28;20032;-55
2022/07/06 05:34:31;;;;;;;3.88;1.70;;;20.90;99.90;;;;;;4995064;28;20401;-55
2022/07/06 05:36:56;;;;;;;6.22;2.10;;;21.40;99.90;;;;;;4993789;28;20019;-52
2022/07/06 05:39:23;;;;;;;4.22;2.22;;;21.80;99.90;;;;;;4996193;28;20035;-56
2022/07/06 05:41:48;;;;;;;5.10;1.77;;;22.30;99.90;;;;;;4994850;28;20018;-54
2022/07/06 05:44:14;;;;;;;4.22;1.70;;;22.60;99.90;;;;;;4994916;28;20029;-56
2022/07/06 05:46:40;;;;;;;2.92;1.85;;;23.00;99.90;;;;;;4996394;28;20109;-50
2022/07/06 05:51:50;;;;;;;6.65;1.88;;;23.70;99.90;;;;;;4996383;28;20084;-55
2022/07/06 05:54:16;;;;;;;3.58;1.75;;;24.10;99.90;;;;;;4995073;28;20030;-49
2022/07/06 05:56:41;;;;;;;7.72;2.00;;;24.40;99.90;;;;;;4994927;28;20109;-52
2022/07/06 05:59:07;;;;;;;3.88;1.80;;;24.90;99.90;;;;;;4994839;28;20053;-50
2022/07/06 06:01:33;;;;;;;5.72;2.17;;;25.30;99.90;;;;;;4994605;28;20432;-55
2022/07/06 06:03:59;;;;;;;3.45;1.33;;;25.60;99.90;;;;;;4994581;28;20030;-50
2022/07/06 06:06:25;;;;;;;3.40;1.58;;;25.90;99.00;;;;;;4995087;28;20108;-56
2022/07/06 06:08:51;;;;;;;3.88;2.05;;;26.40;98.30;;;;;;4994430;28;20030;-52
2022/07/06 06:11:17;;;;;;;4.10;1.65;;;26.40;97.00;;;;;;4994315;28;20030;-52
2022/07/06 06:13:43;;;;;;;3.13;1.55;;;26.50;96.50;;;;;;4994411;28;20030;-53
2022/07/06 06:16:08;;;;;;;6.50;2.38;;;26.90;96.30;;;;;;4994871;28;20038;-51
2022/07/06 06:18:34;;;;;;;4.63;2.15;;;26.90;94.30;;;;;;4994236;28;20023;-51
2022/07/06 06:21:00;;;;;;;4.13;2.05;;;27.30;93.70;;;;;;4994162;28;20543;-51
2022/07/06 06:23:25;;;;;;;5.25;1.50;;;27.70;92.50;;;;;;4995295;28;20018;-52
2022/07/06 06:25:51;;;;;;;10.15;1.90;;;28.00;91.50;;;;;;4995404;28;20053;-51
2022/07/06 06:28:17;;;;;;;3.90;1.80;;;28.40;90.30;;;;;;4994431;28;20026;-50
2022/07/06 06:30:42;;;;;;;2.85;1.52;;;28.90;88.70;;;;;;4995064;28;20133;-52
2022/07/06 06:33:16;;;;;;;3.47;1.80;;;29.20;86.40;;;;;;4993973;28;20026;-52
2022/07/06 06:35:44;;;;;;;3.03;2.10;;;29.60;84.00;;;;;;4994800;28;20057;-53
2022/07/06 06:38:11;;;;;;;6.03;2.13;;;30.20;82.10;;;;;;4993823;28;20077;-51
2022/07/06 06:40:36;;;;;;;4.45;1.67;;;30.20;79.50;;;;;;4994493;28;20019;-55
2022/07/06 06:43:02;;;;;;;3.35;1.73;;;30.30;79.50;;;;;;4993817;28;20065;-50
2022/07/06 06:45:28;;;;;;;5.57;1.77;;;30.80;77.00;;;;;;4993931;28;20113;-51
2022/07/06 06:47:53;;;;;;;4.85;1.63;;;31.50;75.10;;;;;;4994833;28;20033;-53
2022/07/06 06:50:19;;;;;;;7.53;1.60;;;31.60;75.50;;;;;;4994493;28;20058;-53
2022/07/06 06:52:45;;;;;;;2.63;1.52;;;31.70;72.50;;;;;;4994374;28;20073;-50
2022/07/06 06:55:11;;;;;;;5.10;1.45;;;32.10;71.50;;;;;;4993949;28;20048;-50
2022/07/06 06:57:36;;;;;;;4.55;1.60;;;32.50;67.10;;;;;;4993607;28;20025;-51
2022/07/06 07:00:04;;;;;;;1.63;1.45;;;32.60;67.70;;;;;;4994679;28;20033;-50
2022/07/06 07:02:30;;;;;;;3.83;1.67;;;33.10;66.00;;;;;;4995318;28;20041;-50
2022/07/06 07:04:55;;;;;;;7.15;1.95;;;32.90;64.70;;;;;;4994298;28;20030;-51
2022/07/06 07:10:43;;;;;;;2.17;1.50;;;33.10;64.90;;;;;;4994496;28;20033;-49
2022/07/06 07:13:08;;;;;;;2.80;1.48;;;33.50;63.00;;;;;;4993354;28;20019;-50
2022/07/06 07:15:34;;;;;;;5.15;1.52;;;33.40;61.10;;;;;;4993796;28;20255;-55
2022/07/06 07:18:00;;;;;;;3.75;1.23;;;33.90;62.60;;;;;;4993130;28;20381;-54
2022/07/06 07:20:25;;;;;;;1.95;1.10;;;34.20;59.80;;;;;;4994263;28;20057;-50
2022/07/06 07:22:51;;;;;;;4.07;1.33;;;34.40;59.10;;;;;;4993165;28;20027;-53
2022/07/06 07:25:17;;;;;;;2.00;1.20;;;35.00;57.70;;;;;;4993139;28;20030;-49
2022/07/06 07:27:42;;;;;;;3.00;1.50;;;35.20;58.20;;;;;;4992969;28;20026;-50
2022/07/06 07:30:09;;;;;;;3.85;1.58;;;35.20;56.40;;;;;;4994500;28;20035;-48
2022/07/06 07:32:34;;;;;;;4.90;1.40;;;35.70;56.40;;;;;;4993244;28;20026;-54
2022/07/06 07:35:01;;;;;;;3.50;1.50;;;36.00;56.70;;;;;;4994085;28;20121;-53
2022/07/06 07:37:26;;;;;;;5.40;1.75;;;36.10;56.20;;;;;;4992865;28;20499;-52
2022/07/06 07:39:52;;;;;;;4.50;1.30;;;36.30;52.90;;;;;;4994383;28;20030;-55
2022/07/06 07:42:18;;;;;;;2.20;1.42;;;36.40;53.40;;;;;;4992794;28;20076;-51
2022/07/06 07:44:43;;;;;;;1.98;1.48;;;36.90;53.50;;;;;;4994177;28;20050;-49
2022/07/06 07:47:09;;;;;;;3.53;1.30;;;37.50;52.30;;;;;;4992834;28;20019;-55
2022/07/06 07:49:34;;;;;;;3.40;1.23;;;38.10;52.30;;;;;;4992696;28;20027;-56
2022/07/06 07:52:00;;;;;;;4.20;1.60;;;38.30;49.10;;;;;;4992671;28;20052;-53
2022/07/06 07:54:25;;;;;;;5.80;1.40;;;38.00;48.80;;;;;;4992828;28;20031;-53
2022/07/06 07:56:51;;;;;;;2.05;1.60;;;38.00;48.50;;;;;;4994096;28;20073;-53
2022/07/06 07:59:17;;;;;;;4.65;1.50;;;38.30;49.00;;;;;;4992720;28;20022;-54
2022/07/06 08:01:43;;;;;;;2.42;1.25;;;37.90;48.30;;;;;;4996040;28;20038;-52
2022/07/06 08:04:09;;;;;;;3.15;1.70;;;37.30;48.90;;;;;;4996751;28;20035;-51
2022/07/06 08:06:34;;;;;;;3.92;1.50;;;37.40;49.00;;;;;;4996812;28;20049;-52
2022/07/06 08:09:00;;;;;;;2.50;1.20;;;37.80;46.90;;;;;;4996861;28;20049;-55
2022/07/06 08:11:26;;;;;;;1.75;1.17;;;38.00;46.80;;;;;;4997002;28;20029;-51
2022/07/06 08:13:51;;;;;;;5.82;1.35;;;38.30;46.60;;;;;;4996647;28;20097;-55
2022/07/06 08:16:17;;;;;;;6.03;1.25;;;38.20;46.20;;;;;;4998026;28;20427;-51
2022/07/06 08:18:43;;;;;;;7.10;1.30;;;38.10;46.40;;;;;;4996502;28;20124;-55
2022/07/06 08:21:08;;;;;;;4.45;1.38;;;38.20;47.40;;;;;;4996430;28;20029;-53
2022/07/06 08:23:34;;;;;;;3.70;1.27;;;38.20;47.00;;;;;;4996416;28;20420;-51
2022/07/06 08:26:01;;;;;;;3.67;1.33;;;38.10;46.50;;;;;;4997412;28;20416;-48
2022/07/06 08:28:27;;;;;;;3.15;1.42;;;37.20;47.00;;;;;;4996574;28;20026;-49
2022/07/06 08:30:54;;;;;;;3.90;1.20;;;37.60;46.60;;;;;;4996545;28;20033;-52
2022/07/06 08:33:20;;;;;;;6.45;2.00;;;38.00;45.00;;;;;;4997413;28;20130;-49
2022/07/06 08:35:45;;;;;;;4.13;1.38;;;38.20;44.80;;;;;;4996249;28;20030;-49
2022/07/06 08:38:11;;;;;;;2.25;1.33;;;38.10;45.20;;;;;;4997272;28;20116;-51
2022/07/06 08:40:39;;;;;;;3.83;1.52;;;37.60;44.90;;;;;;4996343;28;20109;-50
2022/07/06 08:43:05;;;;;;;4.10;1.30;;;38.30;44.80;;;;;;4997248;28;20026;-51
2022/07/06 08:45:34;;;;;;;3.20;1.23;;;39.20;44.10;;;;;;4996074;28;20018;-52
2022/07/06 08:48:05;;;;;;;1.65;1.20;;;39.90;43.00;;;;;;4997524;28;20019;-52
2022/07/06 08:53:53;;;;;;;3.70;1.80;;;40.80;42.20;;;;;;4997139;28;20080;-49
2022/07/06 08:56:19;;;;;;;7.70;1.92;;;40.90;42.20;;;;;;4996836;28;20030;-54
2022/07/06 08:58:45;;;;;;;2.85;1.13;;;40.80;42.90;;;;;;4995775;28;20037;-52
2022/07/06 09:01:11;;;;;;;5.85;1.58;;;40.70;41.90;;;;;;4995569;28;20092;-55
2022/07/06 09:03:40;;;;;;;2.65;1.50;;;41.00;42.60;;;;;;4995732;28;20023;-54
2022/07/06 09:06:07;;;;;;;7.80;1.50;;;41.50;40.90;;;;;;4996893;28;20080;-50
2022/07/06 09:08:33;;;;;;;2.47;1.33;;;41.70;41.00;;;;;;4995586;28;20488;-49
2022/07/06 09:10:58;;;;;;;3.55;1.20;;;41.00;40.90;;;;;;4995250;28;20412;-54
2022/07/06 09:13:24;;;;;;;2.88;1.38;;;41.10;41.00;;;;;;4995492;28;20543;-53
2022/07/06 09:15:50;;;;;;;1.67;1.20;;;41.70;41.50;;;;;;4996936;28;20030;-50
2022/07/06 09:18:15;;;;;;;2.97;1.38;;;42.10;39.70;;;;;;4996032;28;20101;-52
2022/07/06 09:20:42;;;;;;;2.38;1.05;;;42.00;40.80;;;;;;4995211;28;20046;-53
2022/07/06 09:23:07;;;;;;;2.88;1.38;;;41.90;40.70;;;;;;4996913;28;20045;-55
2022/07/06 09:25:35;;;;;;;2.83;1.10;;;40.50;40.40;;;;;;4995618;28;20376;-56
2022/07/06 09:28:02;;;;;;;2.53;1.17;;;39.90;40.90;;;;;;4995572;28;20027;-51
2022/07/06 09:30:28;;;;;;;5.53;1.40;;;39.30;41.40;;;;;;4995301;28;20374;-51
2022/07/06 09:32:56;;;;;;;4.97;1.60;;;38.70;41.60;;;;;;4995121;28;20109;-48
2022/07/06 09:35:29;;;;;;;1.75;0.98;;;38.10;43.20;;;;;;4995362;28;20109;-48
2022/07/06 09:38:12;;;;;;;3.10;0.90;;;38.70;41.90;;;;;;4995729;28;20022;-49
2022/07/06 09:40:42;;;;;;;1.63;1.13;;;39.00;40.90;;;;;;4994984;28;20033;-52
2022/07/06 09:43:11;;;;;;;2.67;1.30;;;39.80;40.30;;;;;;4995234;28;20027;-54
2022/07/06 09:45:39;;;;;;;1.52;1.00;;;40.60;39.30;;;;;;4994977;28;20169;-56
2022/07/06 09:48:14;;;;;;;2.00;1.20;;;41.20;40.10;;;;;;4995712;28;20026;-51
2022/07/06 09:50:48;;;;;;;2.88;1.10;;;41.50;39.00;;;;;;4996038;28;20022;-52
2022/07/06 09:53:14;;;;;;;7.50;1.60;;;41.30;39.90;;;;;;4995237;28;20088;-53
2022/07/06 09:55:47;;;;;;;1.85;1.20;;;41.60;38.80;;;;;;4994749;28;20046;-56
2022/07/06 09:58:14;;;;;;;1.75;1.00;;;42.30;38.70;;;;;;4995090;28;20022;-55
2022/07/06 10:00:44;;;;;;;2.67;1.00;;;42.40;38.90;;;;;;4994416;28;20094;-49
2022/07/06 10:03:10;;;;;;;1.20;1.10;;;41.50;39.00;;;;;;4995494;28;20030;-48
2022/07/06 10:05:38;;;;;;;1.60;1.00;;;40.90;37.60;;;;;;4994554;28;20026;-49
2022/07/06 10:08:06;;;;;;;1.80;1.10;;;39.80;38.00;;;;;;4995777;28;20023;-50
2022/07/06 10:10:32;;;;;;;1.73;1.30;;;39.50;40.90;;;;;;4995928;28;20018;-55
2022/07/06 10:12:59;;;;;;;3.38;1.20;;;40.00;39.00;;;;;;4996091;28;20540;-50
2022/07/06 10:15:27;;;;;;;2.95;0.93;;;38.50;41.40;;;;;;4994671;28;20126;-48
2022/07/06 10:17:54;;;;;;;1.90;0.90;;;37.80;42.30;;;;;;4995801;28;20057;-49
2022/07/06 10:20:20;;;;;;;2.45;1.00;;;36.80;42.50;;;;;;4994216;28;20049;-53
2022/07/06 10:22:50;;;;;;;3.95;1.20;;;35.60;43.00;;;;;;4993390;28;20121;-52
2022/07/06 10:25:17;;;;;;;2.20;0.70;;;35.00;43.90;;;;;;4994510;28;20076;-50
2022/07/06 10:27:44;;;;;;;1.20;0.80;;;34.10;43.00;;;;;;4994130;28;20027;-52
2022/07/06 10:30:10;;;;;;;3.10;1.05;;;33.30;43.40;;;;;;4995397;28;20041;-51
2022/07/06 10:32:40;;;;;;;1.48;0.80;;;33.10;45.00;;;;;;4993883;28;20132;-54
2022/07/06 10:35:07;;;;;;;3.38;1.10;;;33.90;44.80;;;;;;4994005;28;20038;-51
2022/07/06 10:37:33;;;;;;;3.30;0.80;;;34.60;44.50;;;;;;4994005;28;20404;-55
2022/07/06 10:42:43;;;;;;;2.28;1.00;;;34.30;44.80;;;;;;4995131;28;20034;-55
2022/07/06 10:45:12;;;;;;;1.52;0.70;;;33.70;44.90;;;;;;4993776;28;20023;-50
2022/07/06 10:47:39;;;;;;;1.63;0.90;;;32.40;45.70;;;;;;4995111;28;20018;-54
2022/07/06 10:50:05;;;;;;;4.95;1.00;;;32.10;46.70;;;;;;4994971;28;20030;-51
2022/07/06 10:52:51;;;;;;;2.83;0.75;;;32.20;46.90;;;;;;4994013;28;20026;-51
2022/07/06 10:55:35;;;;;;;2.58;0.90;;;32.10;46.90;;;;;;4994893;28;20027;-50
2022/07/06 10:58:02;;;;;;;1.38;0.90;;;32.10;46.00;;;;;;4993797;28;20113;-48
2022/07/06 11:00:51;;;;;;;2.13;0.73;;;32.10;46.90;;;;;;4993330;28;20494;-52
2022/07/06 11:03:34;;;;;;;0.98;0.88;;;31.00;47.50;;;;;;4995034;28;20033;-50
2022/07/06 11:06:09;;;;;;;1.80;1.30;;;30.70;48.40;;;;;;4993752;28;20085;-49
2022/07/06 11:08:45;;;;;;;0.60;0.60;;;30.50;48.00;;;;;;4993337;28;20026;-48
2022/07/06 11:11:17;;;;;;;1.88;0.80;;;30.00;49.30;;;;;;4994541;28;20045;-51
2022/07/06 11:13:49;;;;;;;3.53;1.25;;;29.90;48.90;;;;;;4993396;28;20031;-48
2022/07/06 11:16:16;;;;;;;1.50;0.80;;;29.80;48.60;;;;;;4994887;28;20022;-49
2022/07/06 11:18:47;;;;;;;2.47;0.90;;;29.80;48.10;;;;;;4993555;28;20072;-52
2022/07/06 11:21:21;;;;;;;0.95;0.90;;;29.50;49.90;;;;;;4993164;28;20027;-55
2022/07/06 11:23:48;;;;;;;2.92;0.90;;;29.60;49.10;;;;;;4994664;28;20026;-53
2022/07/06 11:26:15;;;;;;;3.63;0.80;;;29.60;50.40;;;;;;4994498;28;20057;-49
2022/07/06 11:28:41;;;;;;;1.13;0.63;;;29.60;49.70;;;;;;4993566;28;20026;-55
2022/07/06 11:31:06;;;;;;;2.83;0.98;;;29.40;49.30;;;;;;4994165;28;20023;-53
2022/07/06 11:33:32;;;;;;;3.13;0.90;;;29.30;48.40;;;;;;4993430;28;20169;-52
2022/07/06 11:36:31;;;;;;;4.57;0.90;;;29.40;48.30;;;;;;4994137;28;20428;-48
2022/07/06 11:38:57;;;;;;;0.60;0.45;;;29.20;48.60;;;;;;4992609;28;20049;-53
2022/07/06 11:41:22;;;;;;;1.38;0.68;;;29.10;48.30;;;;;;4994102;28;20022;-50
2022/07/06 11:43:51;;;;;;;3.20;1.00;;;29.10;49.10;;;;;;4992933;28;20180;-48
2022/07/06 11:46:25;;;;;;;1.05;0.60;;;29.10;48.50;;;;;;4993179;28;20085;-53
2022/07/06 11:49:01;;;;;;;1.27;0.63;;;29.00;48.70;;;;;;4993969;28;20026;-51
2022/07/06 11:51:29;;;;;;;1.73;0.77;;;29.10;49.40;;;;;;4994118;28;20113;-54
2022/07/06 11:54:00;;;;;;;2.55;0.80;;;29.10;49.30;;;;;;4994053;28;20030;-53
2022/07/06 11:56:27;;;;;;;1.48;1.13;;;28.60;52.00;;;;;;4992925;28;20029;-50
2022/07/06 11:58:54;;;;;;;0.63;0.60;;;28.50;49.70;;;;;;4992781;28;20062;-50
2022/07/06 12:01:21;;;;;;;2.85;0.82;;;28.10;52.60;;;;;;4993136;28;20026;-51
2022/07/06 12:03:47;;;;;;;3.15;1.00;;;28.20;51.30;;;;;;4993046;28;20027;-48
2022/07/06 12:06:15;;;;;;;0.90;0.68;;;28.20;50.80;;;;;;4993872;28;20073;-48
2022/07/06 12:08:45;;;;;;;1.08;0.65;;;28.00;51.60;;;;;;4993936;28;20034;-48
2022/07/06 12:11:21;;;;;;;3.90;0.57;;;27.80;52.00;;;;;;4993859;28;20080;-50
2022/07/06 12:13:47;;;;;;;1.63;0.98;;;27.90;52.60;;;;;;4993943;28;20061;-48
2022/07/06 12:16:15;;;;;;;3.10;0.70;;;27.80;51.40;;;;;;4992785;28;20027;-48
2022/07/06 12:18:42;;;;;;;2.08;0.70;;;27.80;54.10;;;;;;4992903;28;20064;-51
2022/07/06 12:21:10;;;;;;;1.00;0.52;;;28.00;52.30;;;;;;4992464;28;20033;-55
2022/07/06 12:23:47;;;;;;;3.72;0.80;;;27.80;52.10;;;;;;4993092;28;20022;-52
2022/07/06 12:26:15;;;;;;;4.00;0.90;;;27.70;53.00;;;;;;4993304;28;20086;-49
2022/07/06 12:28:41;;;;;;;0.82;0.63;;;27.90;52.50;;;;;;4992955;28;20026;-51
2022/07/06 12:31:07;;;;;;;1.40;0.68;;;28.20;52.20;;;;;;4992353;28;20027;-53
2022/07/06 12:33:33;;;;;;;2.28;0.60;;;28.20;52.20;;;;;;4992488;28;20022;-55
2022/07/06 12:36:15;;;;;;;2.22;0.80;;;28.10;51.60;;;;;;4993853;28;20092;-49
2022/07/06 12:38:46;;;;;;;2.05;0.80;;;27.90;53.30;;;;;;4992588;28;20027;-49
2022/07/06 12:41:25;;;;;;;2.35;0.80;;;27.60;51.90;;;;;;4992447;28;20029;-53
2022/07/06 12:44:03;;;;;;;5.22;1.27;;;27.30;52.70;;;;;;4992664;28;20022;-53
2022/07/06 12:46:30;;;;;;;1.35;0.80;;;27.20;53.80;;;;;;4994621;28;20018;-50
2022/07/06 12:48:58;;;;;;;0.90;0.63;;;27.00;53.70;;;;;;4996124;28;20026;-52
2022/07/06 12:51:24;;;;;;;3.22;1.00;;;26.90;53.40;;;;;;4996297;28;20388;-49
2022/07/06 12:53:50;;;;;;;3.08;1.02;;;26.80;52.50;;;;;;4997413;28;20038;-50
2022/07/06 12:56:17;;;;;;;0.95;0.70;;;26.60;53.80;;;;;;4997104;28;20032;-53